Terminal Aerodrome Forecast
Issued by NWS Charleston, WV

Current Version | Previous Version | Text Only | Print | Product List | Glossary Off
Versions: 1 2 3 4 5 6 7 8 9 10 11 12 13 14 15 16 17 18 19

000
FTUS41 KRLX 190500
TAFCRW
TAF
KCRW 190535Z 1906/2006 VRB03KT P6SM SKC
     FM191400 20007KT P6SM BKN200
     FM191700 20011G17KT P6SM SCT120
     FM200200 21009G15KT P6SM BKN070
     FM200500 23008G14KT P6SM BKN030=

USA.gov is the U.S. government's official web portal to all federal, state and local government web resources and services.